Preview of NWS' New Version of Forecast
This preview is not operational and should not be used for support decisions.

Terminal Aerodrome Forecast (TAF)

Issued by National Weather Service (NWS)

                            
773 
FTUS42 KKEY 270852 AAC
TAFMTH
TAF AMD
KMTH 270852Z 2709/2806 16016G28KT 5SM -RA BR VCSH SCT010 BKN020
      OVC040
     FM271300 18020G34KT 5SM -RA FEW010 SCT015 OVC025
      TEMPO 2713/2715 20026G37KT 1/2SM +TSRA FG BKN010CB OVC020
     FM271500 19018G30KT P6SM VCSH SCT010 SCT015 BKN050
      TEMPO 2715/2719 21024G36KT 1/2SM +TSRA FG BKN010CB OVC020=